createdAt,value
2018-02-20T00:00:14.254Z,1.10
2018-02-20T00:02:42.595Z,1.00
2018-02-20T00:05:10.910Z,1.00
2018-02-20T00:07:39.258Z,1.00
2018-02-20T00:10:07.582Z,0.90
2018-02-20T00:12:35.902Z,0.90
2018-02-20T00:15:04.235Z,0.90
2018-02-20T00:17:32.551Z,0.80
2018-02-20T00:20:00.898Z,0.80
2018-02-20T00:22:29.215Z,0.70
2018-02-20T00:24:57.551Z,0.60
2018-02-20T00:27:25.867Z,0.50
2018-02-20T00:29:54.195Z,0.40
2018-02-20T00:32:22.512Z,0.40
2018-02-20T00:34:50.847Z,0.30
2018-02-20T00:37:19.165Z,0.20
2018-02-20T00:39:47.502Z,0.10
2018-02-20T00:42:15.819Z,0.00
2018-02-20T00:44:44.148Z,0.00
2018-02-20T00:47:12.462Z,-0.10
2018-02-20T00:49:40.810Z,-0.20
2018-02-20T00:52:09.142Z,-0.30
2018-02-20T00:54:37.480Z,-0.30
2018-02-20T00:57:05.803Z,-0.40
2018-02-20T00:59:34.155Z,-0.40
2018-02-20T01:02:02.467Z,-0.50
2018-02-20T01:04:30.810Z,-0.50
2018-02-20T01:06:59.122Z,-0.60
2018-02-20T01:09:27.460Z,-0.70
2018-02-20T01:11:55.789Z,-0.70
2018-02-20T01:14:24.131Z,-0.80
2018-02-20T01:16:52.451Z,-0.80
2018-02-20T01:19:20.785Z,-0.90
2018-02-20T01:21:49.103Z,-0.90
2018-02-20T01:24:17.439Z,-0.90
2018-02-20T01:26:45.762Z,-1.00
2018-02-20T01:29:14.112Z,-1.00
2018-02-20T01:31:42.427Z,-1.00
2018-02-20T01:34:10.011Z,-1.10
2018-02-20T01:36:38.326Z,-1.10
2018-02-20T01:39:06.671Z,-1.20
2018-02-20T01:41:34.992Z,-1.20
2018-02-20T01:44:03.330Z,-1.20
2018-02-20T01:46:31.650Z,-1.30
2018-02-20T01:48:59.995Z,-1.30
2018-02-20T01:51:28.305Z,-1.30
2018-02-20T01:53:56.619Z,-1.40
2018-02-20T01:56:24.959Z,-1.40
2018-02-20T01:58:53.283Z,-1.40
2018-02-20T02:01:21.635Z,-1.50
2018-02-20T02:03:49.963Z,-1.50
2018-02-20T02:06:18.298Z,-1.50
2018-02-20T02:08:46.610Z,-1.60
2018-02-20T02:11:14.962Z,-1.60
2018-02-20T02:13:43.282Z,-1.60
2018-02-20T02:16:11.622Z,-1.70
2018-02-20T02:18:39.943Z,-1.70
2018-02-20T02:21:08.286Z,-1.70
2018-02-20T02:23:36.607Z,-1.80
2018-02-20T02:26:04.955Z,-1.90
2018-02-20T02:28:33.274Z,-1.90
2018-02-20T02:31:01.615Z,-1.90
2018-02-20T02:33:29.931Z,-1.90
2018-02-20T02:35:58.269Z,-1.90
2018-02-20T02:38:26.600Z,-2.00
2018-02-20T02:40:54.936Z,-2.00
2018-02-20T02:43:23.252Z,-2.00
2018-02-20T02:45:51.596Z,-2.00
2018-02-20T02:48:19.917Z,-2.10
2018-02-20T02:50:48.262Z,-2.10
2018-02-20T02:53:16.584Z,-2.10
2018-02-20T02:55:44.923Z,-2.10
2018-02-20T02:58:13.245Z,-2.10
2018-02-20T03:00:41.588Z,-2.10
2018-02-20T03:03:09.902Z,-2.10
2018-02-20T03:05:38.254Z,-2.20
2018-02-20T03:08:06.579Z,-2.20
2018-02-20T03:10:34.912Z,-2.20
2018-02-20T03:13:03.242Z,-2.20
2018-02-20T03:15:31.583Z,-2.20
2018-02-20T03:17:59.919Z,-2.20
2018-02-20T03:20:28.257Z,-2.20
2018-02-20T03:22:56.575Z,-2.10
2018-02-20T03:25:24.924Z,-2.10
2018-02-20T03:27:53.244Z,-2.10
2018-02-20T03:30:21.596Z,-2.10
2018-02-20T03:32:49.944Z,-2.00
2018-02-20T03:35:18.285Z,-2.00
2018-02-20T03:37:46.603Z,-2.00
2018-02-20T03:40:14.972Z,-2.00
2018-02-20T03:42:43.290Z,-1.90
2018-02-20T03:45:11.607Z,-1.90
2018-02-20T03:47:39.945Z,-1.90
2018-02-20T03:50:08.278Z,-1.90
2018-02-20T03:52:36.624Z,-1.80
2018-02-20T03:55:04.949Z,-1.90
2018-02-20T03:57:33.288Z,-1.90
2018-02-20T04:00:01.607Z,-1.90
2018-02-20T04:02:29.951Z,-1.90
2018-02-20T04:04:58.267Z,-1.90
2018-02-20T04:07:26.602Z,-2.00
2018-02-20T04:09:54.918Z,-1.90
2018-02-20T04:12:23.259Z,-1.80
2018-02-20T04:14:51.583Z,-1.80
2018-02-20T04:17:19.918Z,-1.70
2018-02-20T04:19:48.245Z,-1.70
2018-02-20T04:22:16.582Z,-1.70
2018-02-20T04:24:44.907Z,-1.60
2018-02-20T04:27:13.252Z,-1.60
2018-02-20T04:29:41.573Z,-1.60
2018-02-20T04:32:09.916Z,-1.60
2018-02-20T04:34:38.243Z,-1.50
2018-02-20T04:37:06.588Z,-1.60
2018-02-20T04:39:34.903Z,-1.50
2018-02-20T04:42:03.242Z,-1.50
2018-02-20T04:44:31.573Z,-1.50
2018-02-20T04:46:59.921Z,-1.50
2018-02-20T04:49:28.250Z,-1.40
2018-02-20T04:51:56.591Z,-1.40
2018-02-20T04:54:24.939Z,-1.40
2018-02-20T04:56:53.279Z,-1.40
2018-02-20T04:59:20.834Z,-1.30
2018-02-20T05:01:49.216Z,-1.30
2018-02-20T05:04:17.510Z,-1.40
2018-02-20T05:06:45.860Z,-1.40
2018-02-20T05:09:14.199Z,-1.40
2018-02-20T05:11:42.542Z,-1.40
2018-02-20T05:14:10.867Z,-1.40
2018-02-20T05:16:39.209Z,-1.40
2018-02-20T05:19:07.522Z,-1.40
2018-02-20T05:21:35.874Z,-1.40
2018-02-20T05:24:04.199Z,-1.50
2018-02-20T05:26:32.540Z,-1.50
2018-02-20T05:29:00.876Z,-1.60
2018-02-20T05:31:29.200Z,-1.60
2018-02-20T05:33:57.543Z,-1.60
2018-02-20T05:36:25.864Z,-1.60
2018-02-20T05:38:54.205Z,-1.60
2018-02-20T05:41:22.521Z,-1.50
2018-02-20T05:43:50.862Z,-1.60
2018-02-20T05:46:18.414Z,-1.60
2018-02-20T05:48:46.761Z,-1.60
2018-02-20T05:51:15.088Z,-1.70
2018-02-20T05:53:43.434Z,-1.70
2018-02-20T05:56:11.756Z,-1.80
2018-02-20T05:58:40.111Z,-1.90
2018-02-20T06:01:08.429Z,-1.90
2018-02-20T06:03:36.855Z,-2.00
2018-02-20T06:06:05.176Z,-2.00
2018-02-20T06:08:33.533Z,-2.10
2018-02-20T06:11:01.849Z,-2.10
2018-02-20T06:13:30.183Z,-2.10
2018-02-20T06:15:58.507Z,-2.20
2018-02-20T06:18:26.843Z,-2.20
2018-02-20T06:20:55.159Z,-2.30
2018-02-20T06:23:23.494Z,-2.40
2018-02-20T06:25:51.811Z,-2.40
2018-02-20T06:28:20.148Z,-2.50
2018-02-20T06:30:48.467Z,-2.50
2018-02-20T06:33:16.812Z,-2.50
2018-02-20T06:35:45.135Z,-2.60
2018-02-20T06:38:13.472Z,-2.60
2018-02-20T06:40:41.794Z,-2.60
2018-02-20T06:43:10.141Z,-2.70
2018-02-20T06:45:38.464Z,-2.70
2018-02-20T06:48:06.828Z,-2.80
2018-02-20T06:50:35.172Z,-2.80
2018-02-20T06:53:03.511Z,-2.80
2018-02-20T06:55:31.828Z,-2.80
2018-02-20T06:58:00.167Z,-2.80
2018-02-20T07:00:28.487Z,-2.80
2018-02-20T07:02:56.822Z,-2.80
2018-02-20T07:05:25.153Z,-2.80
2018-02-20T07:07:53.474Z,-2.80
2018-02-20T07:10:21.834Z,-2.80
2018-02-20T07:12:50.167Z,-2.80
2018-02-20T07:15:18.519Z,-2.70
2018-02-20T07:17:46.847Z,-2.70
2018-02-20T07:20:15.186Z,-2.60
2018-02-20T07:22:43.503Z,-2.50
2018-02-20T07:25:11.875Z,-2.40
2018-02-20T07:27:40.199Z,-2.40
2018-02-20T07:30:08.549Z,-2.30
2018-02-20T07:32:36.886Z,-2.20
2018-02-20T07:35:05.229Z,-2.10
2018-02-20T07:37:33.550Z,-2.10
2018-02-20T07:40:01.900Z,-2.00
2018-02-20T07:42:30.219Z,-2.00
2018-02-20T07:44:58.575Z,-2.00
2018-02-20T07:47:26.908Z,-2.00
2018-02-20T07:49:55.260Z,-2.00
2018-02-20T07:52:23.610Z,-1.90
2018-02-20T07:54:51.191Z,-2.00
2018-02-20T07:57:19.519Z,-1.80
2018-02-20T07:59:47.863Z,-1.70
2018-02-20T08:02:16.180Z,-1.60
2018-02-20T08:04:44.523Z,-1.50
2018-02-20T08:07:12.851Z,-1.40
2018-02-20T08:09:41.182Z,-1.20
2018-02-20T08:12:09.507Z,-1.10
2018-02-20T08:14:37.851Z,-1.00
2018-02-20T08:17:06.186Z,-0.90
2018-02-20T08:19:34.553Z,-0.80
2018-02-20T08:22:02.875Z,-0.60
2018-02-20T08:24:31.224Z,-0.50
2018-02-20T08:26:59.542Z,-0.30
2018-02-20T08:29:27.885Z,-0.20
2018-02-20T08:31:56.218Z,0.00
2018-02-20T08:34:24.564Z,0.10
2018-02-20T08:36:52.889Z,0.20
2018-02-20T08:39:21.230Z,0.50
2018-02-20T08:41:49.554Z,0.80
2018-02-20T08:44:17.887Z,1.10
2018-02-20T08:46:46.203Z,1.50
2018-02-20T08:49:14.543Z,1.80
2018-02-20T08:51:42.859Z,2.00
2018-02-20T08:54:11.204Z,2.30
2018-02-20T08:56:39.518Z,2.60
2018-02-20T08:59:07.836Z,2.80
2018-02-20T09:01:36.204Z,3.10
2018-02-20T09:04:04.539Z,3.30
2018-02-20T09:06:32.875Z,3.50
2018-02-20T09:09:01.191Z,3.70
2018-02-20T09:11:29.543Z,3.90
2018-02-20T09:13:57.850Z,4.10
2018-02-20T09:16:26.193Z,4.40
2018-02-20T09:18:54.503Z,4.70
2018-02-20T09:21:22.843Z,5.00
2018-02-20T09:23:51.164Z,5.30
2018-02-20T09:26:19.514Z,5.50
2018-02-20T09:28:47.980Z,5.70
2018-02-20T09:31:16.308Z,5.90
2018-02-20T09:33:44.622Z,6.10
2018-02-20T09:36:12.959Z,6.10
2018-02-20T09:38:41.272Z,5.90
2018-02-20T09:41:09.629Z,5.50
2018-02-20T09:43:37.954Z,5.30
2018-02-20T09:46:06.303Z,5.10
2018-02-20T09:48:34.733Z,5.20
2018-02-20T09:51:03.015Z,5.30
2018-02-20T09:53:31.329Z,5.40
2018-02-20T09:55:59.671Z,5.50
2018-02-20T09:58:27.996Z,5.50
2018-02-20T10:00:56.332Z,5.40
2018-02-20T10:03:24.659Z,5.50
2018-02-20T10:05:52.995Z,5.60
2018-02-20T10:08:21.310Z,5.50
2018-02-20T10:10:49.680Z,5.30
2018-02-20T10:13:18.002Z,5.30
2018-02-20T10:15:46.348Z,5.20
2018-02-20T10:18:14.671Z,5.20
2018-02-20T10:20:43.017Z,5.30
2018-02-20T10:23:11.346Z,5.40
2018-02-20T10:25:39.686Z,5.60
2018-02-20T10:28:08.003Z,5.80
2018-02-20T10:30:36.346Z,5.80
2018-02-20T10:33:04.670Z,5.90
2018-02-20T10:35:33.022Z,5.90
2018-02-20T10:38:01.339Z,6.10
2018-02-20T10:40:29.676Z,6.30
2018-02-20T10:42:58.015Z,6.40
2018-02-20T10:45:26.375Z,6.50
2018-02-20T10:47:54.720Z,6.60
2018-02-20T10:50:23.060Z,6.60
2018-02-20T10:52:51.419Z,6.70
2018-02-20T10:55:19.756Z,7.00
2018-02-20T10:57:48.099Z,7.40
2018-02-20T11:00:16.448Z,7.50
2018-02-20T11:02:44.791Z,7.30
2018-02-20T11:05:13.107Z,7.30
2018-02-20T11:07:41.482Z,7.30
2018-02-20T11:10:09.795Z,7.20
2018-02-20T11:12:38.134Z,7.00
2018-02-20T11:15:06.449Z,6.80
2018-02-20T11:17:34.789Z,6.50
2018-02-20T11:20:03.121Z,6.40
2018-02-20T11:22:31.477Z,6.40
2018-02-20T11:24:59.806Z,6.20
2018-02-20T11:27:28.143Z,6.20
2018-02-20T11:29:56.455Z,6.20
2018-02-20T11:32:24.811Z,6.30
2018-02-20T11:34:53.123Z,6.30
2018-02-20T11:37:21.475Z,6.40
2018-02-20T11:39:49.815Z,6.60
2018-02-20T11:42:18.158Z,6.60
2018-02-20T11:44:46.496Z,6.70
2018-02-20T11:47:14.849Z,6.90
2018-02-20T11:49:43.172Z,7.10
2018-02-20T11:52:11.532Z,7.30
2018-02-20T11:54:39.850Z,7.40
2018-02-20T11:57:08.196Z,7.50
2018-02-20T11:59:36.531Z,7.60
2018-02-20T12:02:04.881Z,7.70
2018-02-20T12:04:33.202Z,7.70
2018-02-20T12:07:01.547Z,7.60
2018-02-20T12:09:29.875Z,7.50
2018-02-20T12:11:58.223Z,7.70
2018-02-20T12:14:26.560Z,8.20
2018-02-20T12:16:54.908Z,8.20
2018-02-20T12:19:23.228Z,8.00
2018-02-20T12:21:51.604Z,7.80
2018-02-20T12:24:19.978Z,7.50
2018-02-20T12:26:48.328Z,7.20
2018-02-20T12:29:16.671Z,7.00
2018-02-20T12:31:45.000Z,6.90
2018-02-20T12:34:13.353Z,6.90
2018-02-20T12:36:41.672Z,7.10
2018-02-20T12:39:10.019Z,7.20
2018-02-20T12:41:38.343Z,7.40
2018-02-20T12:44:06.688Z,7.60
2018-02-20T12:46:35.019Z,7.50
2018-02-20T12:49:03.367Z,7.50
2018-02-20T12:51:31.710Z,7.40
2018-02-20T12:54:00.100Z,7.60
2018-02-20T12:56:28.427Z,7.70
2018-02-20T12:58:56.764Z,7.90
2018-02-20T13:01:25.095Z,8.10
2018-02-20T13:03:53.443Z,8.40
2018-02-20T13:06:21.776Z,8.40
2018-02-20T13:08:50.124Z,8.20
2018-02-20T13:11:18.455Z,8.20
2018-02-20T13:13:46.802Z,8.40
2018-02-20T13:16:15.131Z,8.50
2018-02-20T13:18:43.481Z,8.40
2018-02-20T13:21:11.798Z,8.20
2018-02-20T13:23:40.142Z,8.00
2018-02-20T13:26:08.462Z,7.90
2018-02-20T13:28:36.806Z,7.80
2018-02-20T13:31:05.128Z,7.80
2018-02-20T13:33:33.475Z,7.50
2018-02-20T13:36:01.018Z,7.50
2018-02-20T13:38:29.367Z,7.40
2018-02-20T13:40:57.692Z,7.50
2018-02-20T13:43:26.042Z,7.50
2018-02-20T13:45:53.591Z,7.50
2018-02-20T13:48:21.938Z,7.50
2018-02-20T13:50:50.268Z,7.30
2018-02-20T13:53:18.606Z,7.30
2018-02-20T13:55:46.974Z,7.20
2018-02-20T13:58:15.304Z,7.20
2018-02-20T14:00:43.635Z,7.10
2018-02-20T14:03:11.981Z,7.20
2018-02-20T14:05:40.314Z,7.20
2018-02-20T14:08:08.635Z,7.20
2018-02-20T14:10:36.975Z,7.20
2018-02-20T14:13:05.325Z,7.10
2018-02-20T14:15:33.680Z,7.00
2018-02-20T14:18:02.012Z,7.00
2018-02-20T14:20:30.366Z,6.90
2018-02-20T14:22:58.682Z,6.80
2018-02-20T14:25:27.027Z,6.60
2018-02-20T14:27:55.361Z,6.60
2018-02-20T14:30:23.707Z,6.50
2018-02-20T14:32:52.041Z,6.30
2018-02-20T14:35:20.374Z,6.30
2018-02-20T14:37:48.707Z,6.30
2018-02-20T14:40:17.043Z,6.30
2018-02-20T14:42:45.356Z,6.20
2018-02-20T14:45:13.687Z,6.40
2018-02-20T14:47:42.001Z,6.40
2018-02-20T14:50:10.348Z,6.50
2018-02-20T14:52:38.660Z,6.40
2018-02-20T14:55:06.991Z,6.30
2018-02-20T14:57:35.312Z,6.30
2018-02-20T15:00:03.646Z,6.20
2018-02-20T15:02:31.963Z,6.00
2018-02-20T15:05:00.298Z,5.90
2018-02-20T15:07:28.615Z,5.90
2018-02-20T15:09:56.945Z,5.80
2018-02-20T15:12:25.272Z,5.70
2018-02-20T15:14:53.607Z,5.60
2018-02-20T15:17:21.945Z,5.60
2018-02-20T15:19:50.294Z,5.50
2018-02-20T15:22:18.603Z,5.40
2018-02-20T15:24:46.951Z,5.30
2018-02-20T15:27:15.264Z,5.20
2018-02-20T15:29:44.464Z,5.10
2018-02-20T15:32:12.786Z,4.90
2018-02-20T15:34:41.128Z,4.80
2018-02-20T15:37:09.447Z,4.70
2018-02-20T15:39:37.784Z,4.60
2018-02-20T15:42:06.104Z,4.60
2018-02-20T15:44:34.439Z,4.60
2018-02-20T15:47:02.772Z,4.50
2018-02-20T15:49:31.131Z,4.50
2018-02-20T15:51:59.448Z,4.50
2018-02-20T15:54:27.778Z,4.40
2018-02-20T15:56:56.125Z,4.30
2018-02-20T15:59:24.439Z,4.20
2018-02-20T16:01:52.826Z,4.20
2018-02-20T16:04:21.120Z,4.10
2018-02-20T16:06:49.451Z,4.00
2018-02-20T16:09:17.767Z,3.90
2018-02-20T16:11:46.105Z,3.80
2018-02-20T16:14:16.919Z,3.80
2018-02-20T16:16:45.269Z,3.70
2018-02-20T16:19:13.594Z,3.70
2018-02-20T16:21:41.932Z,3.70
2018-02-20T16:24:10.250Z,3.60
2018-02-20T16:26:38.602Z,3.60
2018-02-20T16:29:06.936Z,3.60
2018-02-20T16:31:35.271Z,3.60
2018-02-20T16:34:03.582Z,3.60
2018-02-20T16:36:31.918Z,3.60
2018-02-20T16:39:00.238Z,3.60
2018-02-20T16:41:28.586Z,3.50
2018-02-20T16:43:56.899Z,3.40
2018-02-20T16:46:25.597Z,3.30
2018-02-20T16:48:53.918Z,3.30
2018-02-20T16:51:22.281Z,3.20
2018-02-20T16:53:50.605Z,3.20
2018-02-20T16:56:18.951Z,3.10
2018-02-20T16:58:47.939Z,3.10
2018-02-20T17:01:16.314Z,3.10
2018-02-20T17:03:44.637Z,3.00
2018-02-20T17:06:12.979Z,3.00
2018-02-20T17:08:41.300Z,2.90
2018-02-20T17:11:09.636Z,2.90
2018-02-20T17:13:37.960Z,2.80
2018-02-20T17:16:06.313Z,2.80
2018-02-20T17:18:34.682Z,2.70
2018-02-20T17:21:03.008Z,2.70
2018-02-20T17:23:31.333Z,2.70
2018-02-20T17:25:59.676Z,2.60
2018-02-20T17:28:27.987Z,2.60
2018-02-20T17:30:56.327Z,2.50
2018-02-20T17:33:24.651Z,2.50
2018-02-20T17:35:52.992Z,2.50
2018-02-20T17:38:21.335Z,2.50
2018-02-20T17:40:49.647Z,2.40
2018-02-20T17:43:17.986Z,2.40
2018-02-20T17:45:46.302Z,2.40
2018-02-20T17:48:14.648Z,2.30
2018-02-20T17:50:42.967Z,2.30
2018-02-20T17:53:11.311Z,2.30
2018-02-20T17:55:39.643Z,2.20
2018-02-20T17:58:07.972Z,2.20
2018-02-20T18:00:36.294Z,2.10
2018-02-20T18:03:04.635Z,2.00
2018-02-20T18:05:32.953Z,2.00
2018-02-20T18:08:01.301Z,1.90
2018-02-20T18:10:29.611Z,1.80
2018-02-20T18:12:57.954Z,1.70
2018-02-20T18:15:26.278Z,1.60
2018-02-20T18:17:54.660Z,1.50
2018-02-20T18:20:22.984Z,1.50
2018-02-20T18:22:51.331Z,1.40
2018-02-20T18:25:19.660Z,1.30
2018-02-20T18:27:48.012Z,1.20
2018-02-20T18:30:16.323Z,1.10
2018-02-20T18:32:44.686Z,1.10
2018-02-20T18:35:13.071Z,1.00
2018-02-20T18:37:41.417Z,0.90
2018-02-20T18:40:09.732Z,0.80
2018-02-20T18:42:38.064Z,0.80
2018-02-20T18:45:06.377Z,0.70
2018-02-20T18:47:34.718Z,0.60
2018-02-20T18:50:03.039Z,0.60
2018-02-20T18:52:31.386Z,0.50
2018-02-20T18:54:59.707Z,0.50
2018-02-20T18:57:28.073Z,0.40
2018-02-20T18:59:56.403Z,0.40
2018-02-20T19:02:24.751Z,0.40
2018-02-20T19:04:53.063Z,0.30
2018-02-20T19:07:21.412Z,0.30
2018-02-20T19:09:49.719Z,0.20
2018-02-20T19:12:18.056Z,0.20
2018-02-20T19:14:46.372Z,0.10
2018-02-20T19:17:14.731Z,0.10
2018-02-20T19:19:43.115Z,0.10
2018-02-20T19:22:11.441Z,0.10
2018-02-20T19:24:39.780Z,0.00
2018-02-20T19:27:08.118Z,0.00
2018-02-20T19:29:36.924Z,0.00
2018-02-20T19:32:05.411Z,-0.10
2018-02-20T19:34:33.793Z,-0.10
2018-02-20T19:37:02.180Z,-0.10
2018-02-20T19:39:30.528Z,-0.10
2018-02-20T19:41:58.929Z,-0.20
2018-02-20T19:44:27.287Z,-0.20
2018-02-20T19:46:55.624Z,-0.20
2018-02-20T19:49:23.977Z,-0.30
2018-02-20T19:51:52.300Z,-0.30
2018-02-20T19:54:20.634Z,-0.30
2018-02-20T19:56:48.942Z,-0.40
2018-02-20T19:59:17.281Z,-0.40
2018-02-20T20:01:45.595Z,-0.40
2018-02-20T20:04:13.935Z,-0.40
2018-02-20T20:06:42.260Z,-0.40
2018-02-20T20:09:10.619Z,-0.50
2018-02-20T20:11:38.936Z,-0.50
2018-02-20T20:14:07.361Z,-0.50
2018-02-20T20:16:35.691Z,-0.60
2018-02-20T20:19:04.082Z,-0.60
2018-02-20T20:21:32.385Z,-0.60
2018-02-20T20:24:00.815Z,-0.60
2018-02-20T20:26:29.122Z,-0.60
2018-02-20T20:28:57.469Z,-0.60
2018-02-20T20:31:25.808Z,-0.60
2018-02-20T20:33:54.172Z,-0.50
2018-02-20T20:36:22.503Z,-0.50
2018-02-20T20:38:50.873Z,-0.50
2018-02-20T20:41:19.192Z,-0.50
2018-02-20T20:43:47.540Z,-0.50
2018-02-20T20:46:15.859Z,-0.50
2018-02-20T20:48:44.212Z,-0.40
2018-02-20T20:51:12.530Z,-0.40
2018-02-20T20:53:40.862Z,-0.40
2018-02-20T20:56:09.220Z,-0.40
2018-02-20T20:58:37.559Z,-0.50
2018-02-20T21:01:05.875Z,-0.60
2018-02-20T21:03:34.204Z,-0.60
2018-02-20T21:06:02.544Z,-0.70
2018-02-20T21:08:30.855Z,-0.70
2018-02-20T21:10:59.221Z,-0.80
2018-02-20T21:13:27.535Z,-0.80
2018-02-20T21:15:55.889Z,-0.80
2018-02-20T21:18:24.203Z,-0.80
2018-02-20T21:20:52.549Z,-0.80
2018-02-20T21:23:20.863Z,-0.80
2018-02-20T21:25:49.207Z,-0.80
2018-02-20T21:28:17.531Z,-0.90
2018-02-20T21:30:45.879Z,-0.90
2018-02-20T21:33:14.203Z,-0.90
2018-02-20T21:35:42.556Z,-1.00
2018-02-20T21:38:10.879Z,-1.00
2018-02-20T21:40:39.228Z,-1.00
2018-02-20T21:43:07.569Z,-1.10
2018-02-20T21:45:35.909Z,-1.20
2018-02-20T21:48:04.283Z,-1.20
2018-02-20T21:50:32.632Z,-1.30
2018-02-20T21:53:00.955Z,-1.30
2018-02-20T21:55:29.302Z,-1.40
2018-02-20T21:57:57.626Z,-1.40
2018-02-20T22:00:25.962Z,-1.40
2018-02-20T22:02:53.522Z,-1.40
2018-02-20T22:05:21.859Z,-1.50
2018-02-20T22:07:50.180Z,-1.50
2018-02-20T22:10:18.523Z,-1.50
2018-02-20T22:12:46.838Z,-1.50
2018-02-20T22:15:15.182Z,-1.60
2018-02-20T22:17:43.510Z,-1.60
2018-02-20T22:20:11.863Z,-1.60
2018-02-20T22:22:40.187Z,-1.60
2018-02-20T22:25:08.532Z,-1.70
2018-02-20T22:27:36.862Z,-1.70
2018-02-20T22:30:05.199Z,-1.80
2018-02-20T22:32:33.514Z,-1.80
2018-02-20T22:35:01.860Z,-1.80
2018-02-20T22:37:30.180Z,-1.80
2018-02-20T22:39:58.526Z,-1.90
2018-02-20T22:42:26.847Z,-2.00
2018-02-20T22:44:55.192Z,-2.00
2018-02-20T22:47:23.507Z,-2.00
2018-02-20T22:49:51.845Z,-2.10
2018-02-20T22:52:20.179Z,-2.10
2018-02-20T22:54:48.494Z,-2.10
2018-02-20T22:57:16.840Z,-2.10
2018-02-20T22:59:45.156Z,-2.10
2018-02-20T23:02:13.503Z,-2.10
2018-02-20T23:04:41.815Z,-2.10
2018-02-20T23:07:10.156Z,-2.20
2018-02-20T23:09:38.487Z,-2.20
2018-02-20T23:12:06.826Z,-2.20
2018-02-20T23:14:35.148Z,-2.20
2018-02-20T23:17:03.502Z,-2.20
2018-02-20T23:19:31.820Z,-2.20
2018-02-20T23:22:00.158Z,-2.20
2018-02-20T23:24:28.493Z,-2.30
2018-02-20T23:26:56.849Z,-2.30
2018-02-20T23:29:25.175Z,-2.30
2018-02-20T23:31:53.512Z,-2.40
2018-02-20T23:34:21.831Z,-2.30
2018-02-20T23:36:50.171Z,-2.30
2018-02-20T23:39:18.492Z,-2.30
2018-02-20T23:41:46.830Z,-2.40
2018-02-20T23:44:15.148Z,-2.40
2018-02-20T23:46:43.484Z,-2.30
2018-02-20T23:49:11.798Z,-2.30
2018-02-20T23:51:40.138Z,-2.20
2018-02-20T23:54:08.467Z,-2.10
2018-02-20T23:56:36.812Z,-2.00
2018-02-20T23:59:05.129Z,-2.00
